createdAt,value
2022-11-20T00:00:06.127Z,8.85
2022-11-20T00:02:54.616Z,8.83
2022-11-20T00:05:42.497Z,8.92
2022-11-20T00:08:30.257Z,8.90
2022-11-20T00:11:23.141Z,8.81
2022-11-20T00:14:11.497Z,8.99
2022-11-20T00:16:59.284Z,8.87
2022-11-20T00:19:47.048Z,8.96
2022-11-20T00:22:34.833Z,8.96
2022-11-20T00:25:22.437Z,8.99
2022-11-20T00:28:10.126Z,9.00
2022-11-20T00:31:13.270Z,9.03
2022-11-20T00:34:01.006Z,8.92
2022-11-20T00:36:48.532Z,9.02
2022-11-20T00:39:36.182Z,9.05
2022-11-20T00:42:23.797Z,9.07
2022-11-20T00:45:11.431Z,9.03
2022-11-20T00:47:59.090Z,9.02
2022-11-20T00:50:46.919Z,8.95
2022-11-20T00:53:34.785Z,9.17
2022-11-20T00:56:22.544Z,9.04
2022-11-20T00:59:10.536Z,9.13
2022-11-20T01:01:58.295Z,9.13
2022-11-20T01:04:46.291Z,9.18
2022-11-20T01:07:34.087Z,9.19
2022-11-20T01:10:21.864Z,9.11
2022-11-20T01:13:28.179Z,9.03
2022-11-20T01:16:21.441Z,9.20
2022-11-20T01:19:17.758Z,9.14
2022-11-20T01:22:05.704Z,9.19
2022-11-20T01:24:53.371Z,8.91
2022-11-20T01:27:43.970Z,9.14
2022-11-20T01:30:31.668Z,9.18
2022-11-20T01:33:19.281Z,9.08
2022-11-20T01:36:07.846Z,9.05
2022-11-20T01:38:57.791Z,9.09
2022-11-20T01:42:10.291Z,9.06
2022-11-20T01:45:00.470Z,9.01
2022-11-20T01:47:48.295Z,8.87
2022-11-20T01:50:38.382Z,8.93
2022-11-20T01:53:32.177Z,9.01
2022-11-20T01:56:20.018Z,8.95
2022-11-20T01:59:19.408Z,8.94
2022-11-20T02:02:12.566Z,9.03
2022-11-20T02:05:11.042Z,9.08
2022-11-20T02:08:00.335Z,8.97
2022-11-20T02:10:50.631Z,8.99
2022-11-20T02:13:47.050Z,9.05
2022-11-20T02:16:46.171Z,9.11
2022-11-20T02:19:36.153Z,9.05
2022-11-20T02:22:34.173Z,8.92
2022-11-20T02:25:22.891Z,9.06
2022-11-20T02:28:11.515Z,9.18
2022-11-20T02:30:59.387Z,9.22
2022-11-20T02:33:46.976Z,9.24
2022-11-20T02:36:37.194Z,9.27
2022-11-20T02:39:27.809Z,9.21
2022-11-20T02:42:15.568Z,9.18
2022-11-20T02:45:03.566Z,9.24
2022-11-20T02:47:52.072Z,9.27
2022-11-20T02:50:41.173Z,9.29
2022-11-20T02:53:28.907Z,9.32
2022-11-20T02:56:19.130Z,9.35
2022-11-20T02:59:07.779Z,9.33
2022-11-20T03:01:55.484Z,9.29
2022-11-20T03:04:43.274Z,9.29
2022-11-20T03:07:32.041Z,9.37
2022-11-20T03:10:19.634Z,9.28
2022-11-20T03:13:07.402Z,9.41
2022-11-20T03:15:55.047Z,9.32
2022-11-20T03:18:43.617Z,9.30
2022-11-20T03:21:31.380Z,9.19
2022-11-20T03:24:19.313Z,9.22
2022-11-20T03:27:07.028Z,9.20
2022-11-20T03:29:54.685Z,9.13
2022-11-20T03:32:42.491Z,8.91
2022-11-20T03:35:30.270Z,9.09
2022-11-20T03:38:17.918Z,8.78
2022-11-20T03:41:08.905Z,8.99
2022-11-20T03:44:01.823Z,9.11
2022-11-20T03:46:49.824Z,9.04
2022-11-20T03:49:38.247Z,8.87
2022-11-20T03:52:25.973Z,8.79
2022-11-20T03:55:13.706Z,8.91
2022-11-20T03:58:01.375Z,8.81
2022-11-20T04:00:49.069Z,8.87
2022-11-20T04:03:38.522Z,8.92
2022-11-20T04:06:31.365Z,8.87
2022-11-20T04:09:19.326Z,8.73
2022-11-20T04:12:10.284Z,8.92
2022-11-20T04:14:57.959Z,8.97
2022-11-20T04:17:45.570Z,8.84
2022-11-20T04:20:33.283Z,8.74
2022-11-20T04:23:25.826Z,8.77
2022-11-20T04:26:16.291Z,8.46
2022-11-20T04:29:04.335Z,8.65
2022-11-20T04:31:52.068Z,8.70
2022-11-20T04:34:39.713Z,8.78
2022-11-20T04:37:27.384Z,8.54
2022-11-20T04:40:15.262Z,8.64
2022-11-20T04:43:03.000Z,8.40
2022-11-20T04:45:55.591Z,8.68
2022-11-20T04:48:43.215Z,8.56
2022-11-20T04:51:31.002Z,8.59
2022-11-20T04:54:24.462Z,8.61
2022-11-20T04:57:14.763Z,8.59
2022-11-20T05:00:02.656Z,8.40
2022-11-20T05:02:50.508Z,8.65
2022-11-20T05:05:40.453Z,8.63
2022-11-20T05:08:28.042Z,8.52
2022-11-20T05:11:18.620Z,8.48
2022-11-20T05:14:09.276Z,8.60
2022-11-20T05:16:57.119Z,8.65
2022-11-20T05:19:45.488Z,8.51
2022-11-20T05:22:37.640Z,8.10
2022-11-20T05:25:25.234Z,8.54
2022-11-20T05:28:15.333Z,8.52
2022-11-20T05:31:07.045Z,8.43
2022-11-20T05:33:55.322Z,8.60
2022-11-20T05:36:42.918Z,8.48
2022-11-20T05:39:30.636Z,8.45
2022-11-20T05:42:33.350Z,8.50
2022-11-20T05:45:21.176Z,8.54
2022-11-20T05:48:08.872Z,8.55
2022-11-20T05:50:59.373Z,8.48
2022-11-20T05:53:48.735Z,8.36
2022-11-20T05:56:36.682Z,8.52
2022-11-20T05:59:24.532Z,8.54
2022-11-20T06:02:12.651Z,8.36
2022-11-20T06:05:03.894Z,8.41
2022-11-20T06:07:51.605Z,8.55
2022-11-20T06:10:42.247Z,8.57
2022-11-20T06:13:29.919Z,8.71
2022-11-20T06:16:20.154Z,8.78
2022-11-20T06:19:12.997Z,8.76
2022-11-20T06:22:00.685Z,8.85
2022-11-20T06:24:48.670Z,8.89
2022-11-20T06:27:36.366Z,8.90
2022-11-20T06:30:27.134Z,8.85
2022-11-20T06:33:14.886Z,8.79
2022-11-20T06:36:10.625Z,8.34
2022-11-20T06:39:00.642Z,8.77
2022-11-20T06:41:48.316Z,8.77
2022-11-20T06:44:35.961Z,8.82
2022-11-20T06:47:23.708Z,8.80
2022-11-20T06:50:11.311Z,8.82
2022-11-20T06:53:03.882Z,8.92
2022-11-20T06:55:52.856Z,8.92
2022-11-20T06:58:43.235Z,8.99
2022-11-20T07:01:30.968Z,8.94
2022-11-20T07:04:21.143Z,8.83
2022-11-20T07:07:10.451Z,9.01
2022-11-20T07:09:58.363Z,9.03
2022-11-20T07:12:51.891Z,9.23
2022-11-20T07:15:39.491Z,8.97
2022-11-20T07:18:27.505Z,9.09
2022-11-20T07:21:17.916Z,9.16
2022-11-20T07:24:05.715Z,9.13
2022-11-20T07:26:53.437Z,9.24
2022-11-20T07:29:41.087Z,9.28
2022-11-20T07:32:28.839Z,9.08
2022-11-20T07:35:16.520Z,9.22
2022-11-20T07:38:06.785Z,9.18
2022-11-20T07:41:04.880Z,9.19
2022-11-20T07:43:53.567Z,9.04
2022-11-20T07:46:41.345Z,9.19
2022-11-20T07:49:29.285Z,9.14
2022-11-20T07:52:17.068Z,9.24
2022-11-20T07:55:05.225Z,9.46
2022-11-20T07:57:57.370Z,9.47
2022-11-20T08:00:44.958Z,9.47
2022-11-20T08:03:32.700Z,9.54
2022-11-20T08:06:21.254Z,9.58
2022-11-20T08:09:08.878Z,9.60
2022-11-20T08:12:15.178Z,9.45
2022-11-20T08:15:02.918Z,9.62
2022-11-20T08:18:08.600Z,9.58
2022-11-20T08:20:58.339Z,9.65
2022-11-20T08:23:46.057Z,9.55
2022-11-20T08:26:33.956Z,9.70
2022-11-20T08:29:21.934Z,9.80
2022-11-20T08:32:09.876Z,9.92
2022-11-20T08:34:57.550Z,9.90
2022-11-20T08:37:48.207Z,9.93
2022-11-20T08:40:35.896Z,9.97
2022-11-20T08:43:23.595Z,10.04
2022-11-20T08:46:11.414Z,9.95
2022-11-20T08:49:02.089Z,9.93
2022-11-20T08:51:52.925Z,9.87
2022-11-20T08:54:45.033Z,9.94
2022-11-20T08:57:33.531Z,9.95
2022-11-20T09:00:21.210Z,9.93
2022-11-20T09:03:08.902Z,9.97
2022-11-20T09:06:03.519Z,9.82
2022-11-20T09:08:54.766Z,9.95
2022-11-20T09:11:45.041Z,10.00
2022-11-20T09:14:33.131Z,10.05
2022-11-20T09:17:21.660Z,10.08
2022-11-20T09:20:09.723Z,10.17
2022-11-20T09:22:58.287Z,10.22
2022-11-20T09:25:45.943Z,10.33
2022-11-20T09:28:34.003Z,10.34
2022-11-20T09:31:25.674Z,10.34
2022-11-20T09:34:13.395Z,10.38
2022-11-20T09:37:04.473Z,10.42
2022-11-20T09:39:56.341Z,10.33
2022-11-20T09:42:53.102Z,10.37
2022-11-20T09:46:09.045Z,10.54
2022-11-20T09:49:13.749Z,10.45
2022-11-20T09:52:11.683Z,10.55
2022-11-20T09:55:03.836Z,10.41
2022-11-20T09:57:52.976Z,10.53
2022-11-20T10:00:41.028Z,10.22
2022-11-20T10:03:46.129Z,10.27
2022-11-20T10:06:43.108Z,10.12
2022-11-20T10:09:33.570Z,9.95
2022-11-20T10:12:35.424Z,10.31
2022-11-20T10:15:45.225Z,10.36
2022-11-20T10:18:36.025Z,10.28
2022-11-20T10:22:01.093Z,10.42
2022-11-20T10:25:03.851Z,10.36
2022-11-20T10:27:54.360Z,10.52
2022-11-20T10:30:55.974Z,10.35
2022-11-20T10:34:12.058Z,10.51
2022-11-20T10:36:59.798Z,10.61
2022-11-20T10:40:05.582Z,10.59
2022-11-20T10:43:02.736Z,10.47
2022-11-20T10:46:29.014Z,10.70
2022-11-20T10:49:20.333Z,10.49
2022-11-20T10:52:21.110Z,10.72
2022-11-20T10:55:46.310Z,10.79
2022-11-20T10:58:52.029Z,10.77
2022-11-20T11:01:45.618Z,10.84
2022-11-20T11:04:50.916Z,10.85
2022-11-20T11:07:40.861Z,10.71
2022-11-20T11:10:34.624Z,10.88
2022-11-20T11:13:28.304Z,10.66
2022-11-20T11:16:34.655Z,11.02
2022-11-20T11:19:22.724Z,11.11
2022-11-20T11:22:19.350Z,10.98
2022-11-20T11:25:20.206Z,11.14
2022-11-20T11:28:23.270Z,10.87
2022-11-20T11:31:11.049Z,10.96
2022-11-20T11:34:09.576Z,11.12
2022-11-20T11:36:59.867Z,11.11
2022-11-20T11:40:03.883Z,11.14
2022-11-20T11:43:00.949Z,11.21
2022-11-20T11:45:54.963Z,11.18
2022-11-20T11:48:45.796Z,11.16
2022-11-20T11:51:56.148Z,11.16
2022-11-20T11:54:53.158Z,11.05
2022-11-20T11:58:07.835Z,11.08
2022-11-20T12:01:30.863Z,11.12
2022-11-20T12:04:42.828Z,11.13
2022-11-20T12:07:46.662Z,11.01
2022-11-20T12:10:57.670Z,11.10
2022-11-20T12:13:56.129Z,11.03
2022-11-20T12:16:43.957Z,11.00
2022-11-20T12:19:34.803Z,11.03
2022-11-20T12:22:30.289Z,11.03
2022-11-20T12:25:30.412Z,11.04
2022-11-20T12:28:20.850Z,11.03
2022-11-20T12:31:36.508Z,10.85
2022-11-20T12:34:45.868Z,11.01
2022-11-20T12:37:49.976Z,10.96
2022-11-20T12:40:54.828Z,10.79
2022-11-20T12:44:19.157Z,10.88
2022-11-20T12:47:24.673Z,10.84
2022-11-20T12:50:19.789Z,10.88
2022-11-20T12:53:30.310Z,10.84
2022-11-20T12:56:32.917Z,10.74
2022-11-20T12:59:36.104Z,10.79
2022-11-20T13:02:58.638Z,10.75
2022-11-20T13:05:52.020Z,10.89
2022-11-20T13:08:49.437Z,10.95
2022-11-20T13:11:49.885Z,10.92
2022-11-20T13:15:03.807Z,10.83
2022-11-20T13:18:00.057Z,10.62
2022-11-20T13:20:49.408Z,10.67
2022-11-20T13:23:36.970Z,10.72
2022-11-20T13:26:25.326Z,10.71
2022-11-20T13:29:18.887Z,10.73
2022-11-20T13:32:17.190Z,10.69
2022-11-20T13:35:06.762Z,10.48
2022-11-20T13:38:06.769Z,10.64
2022-11-20T13:40:59.738Z,10.64
2022-11-20T13:43:49.437Z,10.73
2022-11-20T13:46:45.959Z,10.69
2022-11-20T13:49:49.472Z,10.61
2022-11-20T13:53:23.424Z,10.59
2022-11-20T13:56:26.014Z,10.60
2022-11-20T13:59:34.908Z,10.61
2022-11-20T14:02:28.159Z,10.51
2022-11-20T14:05:23.127Z,10.45
2022-11-20T14:08:22.029Z,10.59
2022-11-20T14:11:19.746Z,10.64
2022-11-20T14:14:25.436Z,10.58
2022-11-20T14:17:29.827Z,10.66
2022-11-20T14:20:20.095Z,10.50
2022-11-20T14:23:11.833Z,10.55
2022-11-20T14:25:59.855Z,10.60
2022-11-20T14:28:52.150Z,10.54
2022-11-20T14:31:43.582Z,10.57
2022-11-20T14:34:34.779Z,10.52
2022-11-20T14:37:25.767Z,10.50
2022-11-20T14:40:37.361Z,10.59
2022-11-20T14:43:29.884Z,10.53
2022-11-20T14:46:18.019Z,10.48
2022-11-20T14:49:14.490Z,10.17
2022-11-20T14:52:19.978Z,10.58
2022-11-20T14:55:09.420Z,10.54
2022-11-20T14:57:59.482Z,10.46
2022-11-20T15:00:59.390Z,10.46
2022-11-20T15:03:47.011Z,10.51
2022-11-20T15:06:34.816Z,10.42
2022-11-20T15:09:25.096Z,10.45
2022-11-20T15:12:19.455Z,10.50
2022-11-20T15:15:08.098Z,10.48
2022-11-20T15:17:55.973Z,10.42
2022-11-20T15:20:44.820Z,10.42
2022-11-20T15:23:32.447Z,10.37
2022-11-20T15:26:27.457Z,10.46
2022-11-20T15:29:22.099Z,10.44
2022-11-20T15:32:13.606Z,10.47
2022-11-20T15:35:01.445Z,10.46
2022-11-20T15:37:49.107Z,10.53
2022-11-20T15:40:42.195Z,10.34
2022-11-20T15:43:32.074Z,10.43
2022-11-20T15:46:27.650Z,10.13
2022-11-20T15:49:20.101Z,10.41
2022-11-20T15:52:10.649Z,10.39
2022-11-20T15:54:58.402Z,10.38
2022-11-20T15:57:47.483Z,10.61
2022-11-20T16:00:35.161Z,10.52
2022-11-20T16:03:23.466Z,10.56
2022-11-20T16:06:11.243Z,10.51
2022-11-20T16:08:58.980Z,10.58
2022-11-20T16:11:46.592Z,10.46
2022-11-20T16:14:52.687Z,10.53
2022-11-20T16:17:46.288Z,10.53
2022-11-20T16:20:34.206Z,10.53
2022-11-20T16:23:24.675Z,10.58
2022-11-20T16:26:18.210Z,10.54
2022-11-20T16:29:11.211Z,10.74
2022-11-20T16:31:58.865Z,10.60
2022-11-20T16:34:46.601Z,10.73
2022-11-20T16:37:34.456Z,10.78
2022-11-20T16:40:26.448Z,10.75
2022-11-20T16:43:17.900Z,10.78
2022-11-20T16:46:05.851Z,10.86
2022-11-20T16:48:55.686Z,10.78
2022-11-20T16:51:47.534Z,10.91
2022-11-20T16:54:35.191Z,10.93
2022-11-20T16:57:28.968Z,10.89
2022-11-20T17:00:16.958Z,10.87
2022-11-20T17:03:06.477Z,10.79
2022-11-20T17:05:55.207Z,11.04
2022-11-20T17:08:43.546Z,11.02
2022-11-20T17:11:31.275Z,10.93
2022-11-20T17:14:18.999Z,10.69
2022-11-20T17:17:06.863Z,10.99
2022-11-20T17:19:54.657Z,10.97
2022-11-20T17:22:45.516Z,11.05
2022-11-20T17:25:34.712Z,10.98
2022-11-20T17:28:22.588Z,10.98
2022-11-20T17:31:15.761Z,11.09
2022-11-20T17:34:03.575Z,10.78
2022-11-20T17:36:51.251Z,11.13
2022-11-20T17:39:40.118Z,11.11
2022-11-20T17:42:27.749Z,10.90
2022-11-20T17:45:15.423Z,11.01
2022-11-20T17:48:03.123Z,11.03
2022-11-20T17:50:51.466Z,11.11
2022-11-20T17:53:41.318Z,11.14
2022-11-20T17:56:54.389Z,11.00
2022-11-20T17:59:42.021Z,11.11
2022-11-20T18:02:29.828Z,11.16
2022-11-20T18:05:17.620Z,11.03
2022-11-20T18:08:05.437Z,11.19
2022-11-20T18:10:53.094Z,11.21
2022-11-20T18:14:00.942Z,11.22
2022-11-20T18:17:18.361Z,11.23
2022-11-20T18:20:27.788Z,11.17
2022-11-20T18:23:14.514Z,11.29
2022-11-20T18:26:02.251Z,11.23
2022-11-20T18:28:50.662Z,11.14
2022-11-20T18:31:38.365Z,11.17
2022-11-20T18:34:27.195Z,11.27
2022-11-20T18:37:16.651Z,11.15
2022-11-20T18:40:05.040Z,11.26
2022-11-20T18:43:11.109Z,11.11
2022-11-20T18:46:03.731Z,11.16
2022-11-20T18:48:52.163Z,11.12
2022-11-20T18:51:41.167Z,11.07
2022-11-20T18:54:31.440Z,11.00
2022-11-20T18:57:20.849Z,11.06
2022-11-20T19:00:10.137Z,11.04
2022-11-20T19:02:58.068Z,10.94
2022-11-20T19:05:45.792Z,10.72
2022-11-20T19:08:34.931Z,10.85
2022-11-20T19:11:22.645Z,10.87
2022-11-20T19:14:10.531Z,10.90
2022-11-20T19:16:58.550Z,10.85
2022-11-20T19:19:46.302Z,10.73
2022-11-20T19:22:37.863Z,10.75
2022-11-20T19:25:25.445Z,10.75
2022-11-20T19:28:13.178Z,10.66
2022-11-20T19:31:12.578Z,10.67
2022-11-20T19:34:07.908Z,10.66
2022-11-20T19:36:59.045Z,10.48
2022-11-20T19:39:51.447Z,10.55
2022-11-20T19:42:39.631Z,10.64
2022-11-20T19:45:27.340Z,10.49
2022-11-20T19:48:14.982Z,10.60
2022-11-20T19:51:10.713Z,10.57
2022-11-20T19:53:59.729Z,10.61
2022-11-20T19:56:49.709Z,10.63
2022-11-20T19:59:37.488Z,10.71
2022-11-20T20:02:25.903Z,10.65
2022-11-20T20:05:13.611Z,10.68
2022-11-20T20:08:01.700Z,10.75
2022-11-20T20:10:56.616Z,10.82
2022-11-20T20:13:50.728Z,10.84
2022-11-20T20:16:38.375Z,10.70
2022-11-20T20:19:26.559Z,10.67
2022-11-20T20:22:14.479Z,10.78
2022-11-20T20:25:02.163Z,10.75
2022-11-20T20:27:49.827Z,10.75
2022-11-20T20:30:37.550Z,10.67
2022-11-20T20:33:25.302Z,10.76
2022-11-20T20:36:15.284Z,10.76
2022-11-20T20:39:03.158Z,10.64
2022-11-20T20:41:51.047Z,10.77
2022-11-20T20:44:57.422Z,10.82
2022-11-20T20:47:45.360Z,10.80
2022-11-20T20:50:33.310Z,10.85
2022-11-20T20:53:21.804Z,10.83
2022-11-20T20:56:10.100Z,10.78
2022-11-20T20:58:58.081Z,10.85
2022-11-20T21:01:45.918Z,10.72
2022-11-20T21:04:34.192Z,10.80
2022-11-20T21:07:22.146Z,10.88
2022-11-20T21:10:09.957Z,10.78
2022-11-20T21:12:57.586Z,10.86
2022-11-20T21:15:48.529Z,10.79
2022-11-20T21:18:36.332Z,10.82
2022-11-20T21:21:42.307Z,10.76
2022-11-20T21:24:35.070Z,10.84
2022-11-20T21:27:24.870Z,10.86
2022-11-20T21:30:13.069Z,10.89
2022-11-20T21:33:01.091Z,10.88
2022-11-20T21:35:48.767Z,10.83
2022-11-20T21:38:37.030Z,10.87
2022-11-20T21:41:27.385Z,10.73
2022-11-20T21:44:30.652Z,10.77
2022-11-20T21:47:23.535Z,10.75
2022-11-20T21:50:11.880Z,10.64
2022-11-20T21:53:00.537Z,10.82
2022-11-20T21:55:58.129Z,10.85
2022-11-20T21:58:46.412Z,10.88
2022-11-20T22:01:34.217Z,10.85
2022-11-20T22:04:23.174Z,10.88
2022-11-20T22:07:11.165Z,10.86
2022-11-20T22:09:58.839Z,10.90
2022-11-20T22:12:46.566Z,10.90
2022-11-20T22:15:59.369Z,10.97
2022-11-20T22:18:50.513Z,10.92
2022-11-20T22:21:40.283Z,10.96
2022-11-20T22:24:28.235Z,10.83
2022-11-20T22:27:15.943Z,10.94
2022-11-20T22:30:03.826Z,10.95
2022-11-20T22:32:54.299Z,11.03
2022-11-20T22:35:42.014Z,11.04
2022-11-20T22:38:30.090Z,10.91
2022-11-20T22:41:21.145Z,10.96
2022-11-20T22:44:09.253Z,10.98
2022-11-20T22:46:56.949Z,11.00
2022-11-20T22:49:44.713Z,10.99
2022-11-20T22:52:37.798Z,10.86
2022-11-20T22:55:27.993Z,10.88
2022-11-20T22:58:15.804Z,10.88
2022-11-20T23:01:15.591Z,10.93
2022-11-20T23:04:06.009Z,10.85
2022-11-20T23:06:53.609Z,10.86
2022-11-20T23:09:41.391Z,10.96
2022-11-20T23:12:29.082Z,10.91
2022-11-20T23:15:16.866Z,10.93
2022-11-20T23:18:04.655Z,10.92
2022-11-20T23:20:52.344Z,10.86
2022-11-20T23:23:40.912Z,10.80
2022-11-20T23:26:32.565Z,10.70
2022-11-20T23:29:20.347Z,10.78
2022-11-20T23:32:08.177Z,10.68
2022-11-20T23:34:55.943Z,10.71
2022-11-20T23:37:45.853Z,10.71
2022-11-20T23:40:40.083Z,10.73
2022-11-20T23:43:29.026Z,10.77
2022-11-20T23:46:17.099Z,10.70
2022-11-20T23:49:04.981Z,10.69
2022-11-20T23:51:52.535Z,10.79
2022-11-20T23:54:40.161Z,10.67
2022-11-20T23:57:27.799Z,10.70
